Time;durP1;ratioP1;P1;durP2;ratioP2;P2;SDS_P1;SDS_P2;PMS_P1;PMS_P2;Temp;Humidity;BMP_temperature;BMP_pressure;BME280_temperature;BME280_humidity;BME280_pressure;Samples;Min_cycle;Max_cycle;Signal;HPM_P1;HPM_P2
2022/11/07 00:02:02;;;;;;;8.13;4.47;;;;;;;;;;5043137;28;20368;-63
2022/11/07 00:04:28;;;;;;;7.43;4.00;;;;;;;;;;5040291;28;20075;-63
2022/11/07 00:06:53;;;;;;;6.80;3.10;;;;;;;;;;5044937;28;20024;-62
2022/11/07 00:09:18;;;;;;;9.67;4.13;;;;;;;;;;5047990;28;20033;-62
2022/11/07 00:11:43;;;;;;;8.37;3.53;;;;;;;;;;5030555;28;20040;-63
2022/11/07 00:14:10;;;;;;;8.07;4.03;;;;;;;;;;5031255;28;20044;-63
2022/11/07 00:16:35;;;;;;;7.63;3.70;;;;;;;;;;5040631;28;20021;-63
2022/11/07 00:19:00;;;;;;;10.10;4.13;;;;;;;;;;5042636;28;20033;-63
2022/11/07 00:21:25;;;;;;;7.53;3.97;;;;;;;;;;5039945;28;20115;-62
2022/11/07 00:23:51;;;;;;;11.40;4.63;;;;;;;;;;5046091;28;20022;-62
2022/11/07 00:26:16;;;;;;;5.83;3.20;;;;;;;;;;5054708;28;20067;-63
2022/11/07 00:28:42;;;;;;;7.20;3.63;;;;;;;;;;5045036;28;20029;-63
2022/11/07 00:31:08;;;;;;;6.73;3.47;;;;;;;;;;5037323;28;20026;-63
2022/11/07 00:33:34;;;;;;;7.00;3.30;;;;;;;;;;5034330;28;20424;-63
2022/11/07 00:35:59;;;;;;;9.37;4.07;;;;;;;;;;5033758;28;20021;-63
2022/11/07 00:38:24;;;;;;;7.63;3.43;;;;;;;;;;5038389;28;20040;-63
2022/11/07 00:40:54;;;;;;;6.50;3.43;;;;;;;;;;5053326;28;20028;-62
2022/11/07 00:43:19;;;;;;;8.07;3.93;;;;;;;;;;5052407;28;20048;-62
2022/11/07 00:45:44;;;;;;;7.13;4.23;;;;;;;;;;5039613;28;20021;-62
2022/11/07 00:48:09;;;;;;;7.23;3.67;;;;;;;;;;5033960;28;20035;-63
2022/11/07 00:50:34;;;;;;;5.43;3.17;;;;;;;;;;5033840;28;20029;-62
2022/11/07 00:53:00;;;;;;;7.20;3.07;;;;;;;;;;5043110;28;20254;-62
2022/11/07 00:55:25;;;;;;;9.60;3.43;;;;;;;;;;5045668;28;20107;-62
2022/11/07 00:57:50;;;;;;;7.60;3.40;;;;;;;;;;5045998;28;20219;-62
2022/11/07 01:00:15;;;;;;;6.03;2.80;;;;;;;;;;5040992;28;20021;-63
2022/11/07 01:02:40;;;;;;;7.83;3.50;;;;;;;;;;5035927;28;20032;-63
2022/11/07 01:05:10;;;;;;;6.77;3.30;;;;;;;;;;5053379;28;20024;-63
2022/11/07 01:07:36;;;;;;;7.00;2.23;;;;;;;;;;5039726;28;20099;-63
2022/11/07 01:10:02;;;;;;;8.27;2.83;;;;;;;;;;5033506;28;20049;-62
2022/11/07 01:12:27;;;;;;;9.20;3.33;;;;;;;;;;5038985;28;20027;-63
2022/11/07 01:14:52;;;;;;;8.70;3.40;;;;;;;;;;5046564;28;20025;-63
2022/11/07 01:17:17;;;;;;;7.70;3.13;;;;;;;;;;5034071;28;20412;-64
2022/11/07 01:19:43;;;;;;;6.97;3.20;;;;;;;;;;5044241;28;20349;-63
2022/11/07 01:22:08;;;;;;;6.30;3.10;;;;;;;;;;5038014;28;20377;-63
2022/11/07 01:24:33;;;;;;;7.80;3.00;;;;;;;;;;5050211;28;20025;-64
2022/11/07 01:26:59;;;;;;;4.83;2.80;;;;;;;;;;5054496;28;20024;-64
2022/11/07 01:29:24;;;;;;;7.03;2.70;;;;;;;;;;5037338;28;20029;-63
2022/11/07 01:31:49;;;;;;;8.43;2.87;;;;;;;;;;5045018;28;20073;-63
2022/11/07 01:34:16;;;;;;;9.60;2.90;;;;;;;;;;5041805;28;20065;-61
2022/11/07 01:36:41;;;;;;;9.47;2.90;;;;;;;;;;5034625;28;20497;-61
2022/11/07 01:39:07;;;;;;;6.07;2.00;;;;;;;;;;5033282;28;20113;-62
2022/11/07 01:41:33;;;;;;;9.93;2.80;;;;;;;;;;5050420;28;20053;-61
2022/11/07 01:43:58;;;;;;;7.60;3.20;;;;;;;;;;5051011;28;20047;-61
2022/11/07 01:46:26;;;;;;;5.17;2.00;;;;;;;;;;5044842;28;20050;-62
2022/11/07 01:48:56;;;;;;;8.73;2.60;;;;;;;;;;5048407;28;20028;-63
2022/11/07 01:51:21;;;;;;;6.23;2.60;;;;;;;;;;5038242;28;20025;-62
2022/11/07 01:53:47;;;;;;;7.17;2.40;;;;;;;;;;5051870;28;20029;-63
2022/11/07 01:56:13;;;;;;;7.90;2.43;;;;;;;;;;5038545;28;20384;-64
2022/11/07 01:58:40;;;;;;;9.10;2.70;;;;;;;;;;5064727;28;20451;-63
2022/11/07 02:01:05;;;;;;;6.50;2.30;;;;;;;;;;5062313;28;20173;-63
2022/11/07 02:03:31;;;;;;;5.13;1.83;;;;;;;;;;5060705;28;20140;-63
2022/11/07 02:05:59;;;;;;;8.17;2.50;;;;;;;;;;5040981;28;20022;-62
2022/11/07 02:08:25;;;;;;;5.03;2.20;;;;;;;;;;5047107;28;20571;-64
2022/11/07 02:10:51;;;;;;;8.17;2.20;;;;;;;;;;5056275;28;20412;-63
2022/11/07 02:13:20;;;;;;;5.13;1.87;;;;;;;;;;5065286;28;20391;-63
2022/11/07 02:15:45;;;;;;;4.67;1.90;;;;;;;;;;5053088;28;20033;-63
2022/11/07 02:18:10;;;;;;;7.77;2.50;;;;;;;;;;5042107;28;20391;-62
2022/11/07 02:20:36;;;;;;;6.70;2.03;;;;;;;;;;5047105;28;20025;-63
2022/11/07 02:23:10;;;;;;;8.10;2.20;;;;;;;;;;5057719;28;20026;-60
2022/11/07 02:25:36;;;;;;;7.23;2.23;;;;;;;;;;5066229;28;20028;-62
2022/11/07 02:28:04;;;;;;;4.70;1.80;;;;;;;;;;5061350;28;20387;-63
2022/11/07 02:30:32;;;;;;;11.53;2.30;;;;;;;;;;5064266;28;20033;-63
2022/11/07 02:32:58;;;;;;;6.17;2.00;;;;;;;;;;5065126;28;20036;-63
2022/11/07 02:35:42;;;;;;;7.90;2.13;;;;;;;;;;5053615;28;20401;-63
2022/11/07 02:38:12;;;;;;;10.93;2.30;;;;;;;;;;5046933;28;20395;-62
2022/11/07 02:40:38;;;;;;;6.33;2.00;;;;;;;;;;5032874;28;20037;-62
2022/11/07 02:43:04;;;;;;;8.10;2.17;;;;;;;;;;5042023;28;20049;-62
2022/11/07 02:45:31;;;;;;;9.00;2.30;;;;;;;;;;5060994;28;20082;-62
2022/11/07 02:47:56;;;;;;;6.37;1.90;;;;;;;;;;5062172;28;20040;-62
2022/11/07 02:50:22;;;;;;;9.37;2.63;;;;;;;;;;5042449;28;20033;-63
2022/11/07 02:52:47;;;;;;;5.33;1.70;;;;;;;;;;5046213;28;20024;-63
2022/11/07 02:55:13;;;;;;;6.53;2.30;;;;;;;;;;5042626;28;20463;-62
2022/11/07 02:57:38;;;;;;;5.50;1.73;;;;;;;;;;5053788;28;20036;-63
2022/11/07 03:00:04;;;;;;;5.73;1.93;;;;;;;;;;5045568;28;20032;-63
2022/11/07 03:02:30;;;;;;;8.40;2.10;;;;;;;;;;5038463;28;20123;-60
2022/11/07 03:04:55;;;;;;;7.30;2.37;;;;;;;;;;5055715;28;20529;-62
2022/11/07 03:07:20;;;;;;;4.50;1.87;;;;;;;;;;5057435;28;20043;-63
2022/11/07 03:09:46;;;;;;;8.10;2.67;;;;;;;;;;5054361;28;20112;-63
2022/11/07 03:12:11;;;;;;;6.20;2.20;;;;;;;;;;5042970;28;20064;-64
2022/11/07 03:14:36;;;;;;;7.33;2.10;;;;;;;;;;5051093;28;20055;-63
2022/11/07 03:17:01;;;;;;;8.27;2.20;;;;;;;;;;5034925;28;20092;-63
2022/11/07 03:19:27;;;;;;;7.23;2.20;;;;;;;;;;5040470;28;20022;-62
2022/11/07 03:21:52;;;;;;;8.17;2.20;;;;;;;;;;5031110;28;20028;-63
2022/11/07 03:24:17;;;;;;;4.50;1.80;;;;;;;;;;5031093;28;20024;-63
2022/11/07 03:26:43;;;;;;;6.17;2.40;;;;;;;;;;5043827;28;20029;-61
2022/11/07 03:29:08;;;;;;;9.30;2.20;;;;;;;;;;5039022;28;20025;-61
2022/11/07 03:31:34;;;;;;;9.17;2.33;;;;;;;;;;5038214;28;20087;-62
2022/11/07 03:33:59;;;;;;;8.70;2.20;;;;;;;;;;5031514;28;20033;-62
2022/11/07 03:36:25;;;;;;;7.93;2.57;;;;;;;;;;5041858;28;20475;-62
2022/11/07 03:38:50;;;;;;;7.87;2.00;;;;;;;;;;5047582;28;20017;-62
2022/11/07 03:41:16;;;;;;;7.17;2.20;;;;;;;;;;5050225;28;20029;-61
2022/11/07 03:43:45;;;;;;;7.80;2.30;;;;;;;;;;5044791;28;20044;-62
2022/11/07 03:46:10;;;;;;;9.30;2.50;;;;;;;;;;5043979;28;20025;-61
2022/11/07 03:48:36;;;;;;;7.53;3.10;;;;;;;;;;5049899;28;20070;-62
2022/11/07 03:51:01;;;;;;;6.40;2.20;;;;;;;;;;5035148;28;20084;-61
2022/11/07 03:53:26;;;;;;;8.40;2.10;;;;;;;;;;5035730;28;20621;-62
2022/11/07 03:55:53;;;;;;;9.43;2.10;;;;;;;;;;5043812;28;20488;-62
2022/11/07 03:58:18;;;;;;;7.97;2.27;;;;;;;;;;5066708;28;20032;-62
2022/11/07 04:00:43;;;;;;;6.67;2.20;;;;;;;;;;5046869;28;20486;-61
2022/11/07 04:03:08;;;;;;;8.70;2.33;;;;;;;;;;5056471;28;20590;-62
2022/11/07 04:05:33;;;;;;;8.27;2.13;;;;;;;;;;5049815;28;20601;-62
2022/11/07 04:07:59;;;;;;;11.47;2.10;;;;;;;;;;5051595;28;20025;-62
2022/11/07 04:10:24;;;;;;;6.70;2.73;;;;;;;;;;5035813;28;20126;-61
2022/11/07 04:18:17;;;;;;;7.03;1.80;;;;;;;;;;5041223;28;20617;-62
2022/11/07 04:20:42;;;;;;;9.80;2.37;;;;;;;;;;5055479;28;20092;-61
2022/11/07 04:23:07;;;;;;;7.90;2.30;;;;;;;;;;5041268;28;20152;-61
2022/11/07 04:28:16;;;;;;;9.73;2.97;;;;;;;;;;5034133;28;20048;-61
2022/11/07 04:30:42;;;;;;;8.90;2.43;;;;;;;;;;5042036;28;20033;-62
2022/11/07 04:33:07;;;;;;;11.77;2.63;;;;;;;;;;5045639;28;20445;-62
2022/11/07 04:35:32;;;;;;;5.17;1.60;;;;;;;;;;5045878;28;20053;-62
2022/11/07 04:37:59;;;;;;;7.63;2.10;;;;;;;;;;5036932;28;20145;-62
2022/11/07 04:40:24;;;;;;;10.30;2.53;;;;;;;;;;5044048;28;20033;-62
2022/11/07 04:42:50;;;;;;;12.40;2.40;;;;;;;;;;5030651;28;20021;-63
2022/11/07 04:45:15;;;;;;;10.67;2.83;;;;;;;;;;5044220;28;20036;-62
2022/11/07 04:47:41;;;;;;;8.00;2.10;;;;;;;;;;5039130;28;20392;-62
2022/11/07 04:50:08;;;;;;;9.37;2.13;;;;;;;;;;5034701;28;20034;-62
2022/11/07 04:52:33;;;;;;;5.33;2.20;;;;;;;;;;5033403;28;20041;-62
2022/11/07 04:54:59;;;;;;;8.53;2.50;;;;;;;;;;5053447;28;20158;-62
2022/11/07 04:57:24;;;;;;;9.80;2.67;;;;;;;;;;5056114;28;20029;-62
2022/11/07 04:59:49;;;;;;;8.67;2.17;;;;;;;;;;5039675;28;20534;-63
2022/11/07 05:02:14;;;;;;;7.10;2.00;;;;;;;;;;5057823;28;20520;-62
2022/11/07 05:04:40;;;;;;;7.63;2.13;;;;;;;;;;5068482;28;20078;-61
2022/11/07 05:07:05;;;;;;;6.87;2.10;;;;;;;;;;5050940;28;20032;-62
2022/11/07 05:09:31;;;;;;;10.27;2.50;;;;;;;;;;5052687;28;20082;-62
2022/11/07 05:11:56;;;;;;;7.60;2.00;;;;;;;;;;5048487;28;20042;-63
2022/11/07 05:14:21;;;;;;;7.53;2.30;;;;;;;;;;5068560;28;20434;-63
2022/11/07 05:16:48;;;;;;;6.97;2.43;;;;;;;;;;5046678;28;20032;-64
2022/11/07 05:19:17;;;;;;;10.80;2.17;;;;;;;;;;5053799;28;20107;-62
2022/11/07 05:21:42;;;;;;;7.63;2.60;;;;;;;;;;5047447;28;20029;-63
2022/11/07 05:24:08;;;;;;;7.87;2.30;;;;;;;;;;5066497;28;20025;-63
2022/11/07 05:26:33;;;;;;;8.00;2.60;;;;;;;;;;5042036;28;20028;-62
2022/11/07 05:28:58;;;;;;;9.50;2.60;;;;;;;;;;5051942;28;20025;-63
2022/11/07 05:31:23;;;;;;;11.33;2.37;;;;;;;;;;5045575;28;20379;-63
2022/11/07 05:33:49;;;;;;;8.17;2.20;;;;;;;;;;5056418;28;20029;-62
2022/11/07 05:36:15;;;;;;;11.60;3.17;;;;;;;;;;5059780;28;20033;-61
2022/11/07 05:38:44;;;;;;;6.73;2.00;;;;;;;;;;5058460;28;20055;-62
2022/11/07 05:41:09;;;;;;;9.83;3.37;;;;;;;;;;5066786;28;20077;-63
2022/11/07 05:43:35;;;;;;;7.33;2.40;;;;;;;;;;5044637;28;20501;-62
2022/11/07 05:46:01;;;;;;;9.67;2.60;;;;;;;;;;5053323;28;20032;-63
2022/11/07 05:48:26;;;;;;;7.80;2.60;;;;;;;;;;5052469;28;20388;-62
2022/11/07 05:50:52;;;;;;;7.87;2.10;;;;;;;;;;5051550;28;20380;-62
2022/11/07 05:53:19;;;;;;;9.33;2.60;;;;;;;;;;5043660;28;20020;-64
2022/11/07 05:55:45;;;;;;;9.97;2.60;;;;;;;;;;5066508;28;20024;-62
2022/11/07 05:58:10;;;;;;;7.20;2.13;;;;;;;;;;5061915;28;20059;-63
2022/11/07 06:00:35;;;;;;;7.63;2.40;;;;;;;;;;5050749;28;20103;-62
2022/11/07 06:03:00;;;;;;;10.90;2.50;;;;;;;;;;5046659;28;20017;-63
2022/11/07 06:05:26;;;;;;;10.30;2.50;;;;;;;;;;5049729;28;20108;-62
2022/11/07 06:07:51;;;;;;;8.70;2.40;;;;;;;;;;5047201;28;20064;-63
2022/11/07 06:10:16;;;;;;;6.63;1.90;;;;;;;;;;5038667;28;20022;-63
2022/11/07 06:12:42;;;;;;;8.10;1.73;;;;;;;;;;5033498;28;20519;-63
2022/11/07 06:15:07;;;;;;;7.53;2.20;;;;;;;;;;5044766;28;20495;-63
2022/11/07 06:17:32;;;;;;;9.40;2.43;;;;;;;;;;5033756;28;20053;-62
2022/11/07 06:19:58;;;;;;;7.73;2.07;;;;;;;;;;5047892;28;20020;-63
2022/11/07 06:22:24;;;;;;;10.30;2.37;;;;;;;;;;5034694;28;20049;-63
2022/11/07 06:24:49;;;;;;;12.87;2.33;;;;;;;;;;5051982;28;20021;-64
2022/11/07 06:27:14;;;;;;;11.33;2.50;;;;;;;;;;5042338;28;20492;-63
2022/11/07 06:29:40;;;;;;;10.87;2.90;;;;;;;;;;5036750;28;20017;-63
2022/11/07 06:32:05;;;;;;;10.37;2.20;;;;;;;;;;5045920;28;20029;-63
2022/11/07 06:34:30;;;;;;;8.60;2.20;;;;;;;;;;5045258;28;20041;-63
2022/11/07 06:37:07;;;;;;;9.90;2.60;;;;;;;;;;5049307;28;20029;-63
2022/11/07 06:39:32;;;;;;;9.87;2.23;;;;;;;;;;5044867;28;20117;-64
2022/11/07 06:41:58;;;;;;;10.23;2.60;;;;;;;;;;5038602;28;20516;-62
2022/11/07 06:44:23;;;;;;;11.57;2.93;;;;;;;;;;5033477;28;20087;-61
2022/11/07 06:46:48;;;;;;;6.63;1.90;;;;;;;;;;5032776;28;20095;-62
2022/11/07 06:49:14;;;;;;;8.87;2.27;;;;;;;;;;5032677;28;20355;-61
2022/11/07 06:51:39;;;;;;;9.80;2.60;;;;;;;;;;5032433;28;20021;-61
2022/11/07 06:54:04;;;;;;;16.13;2.87;;;;;;;;;;5051427;28;20025;-61
2022/11/07 06:56:29;;;;;;;9.40;2.17;;;;;;;;;;5052248;28;20021;-61
2022/11/07 06:58:55;;;;;;;9.57;2.50;;;;;;;;;;5052378;28;20110;-62
2022/11/07 07:01:20;;;;;;;10.07;2.33;;;;;;;;;;5052412;28;20024;-61
2022/11/07 07:03:45;;;;;;;9.27;2.70;;;;;;;;;;5051572;28;20020;-61
2022/11/07 07:06:12;;;;;;;9.07;2.70;;;;;;;;;;5052203;28;20020;-61
2022/11/07 07:08:37;;;;;;;12.17;2.60;;;;;;;;;;5052115;28;20198;-61
2022/11/07 07:11:03;;;;;;;11.70;2.50;;;;;;;;;;5051137;28;20053;-62
2022/11/07 07:13:29;;;;;;;7.93;2.13;;;;;;;;;;5051929;28;20075;-62
2022/11/07 07:15:54;;;;;;;12.13;2.97;;;;;;;;;;5043578;28;20021;-61
2022/11/07 07:18:20;;;;;;;12.77;2.63;;;;;;;;;;5032133;28;20053;-61
2022/11/07 07:20:46;;;;;;;12.60;2.73;;;;;;;;;;5031837;28;20021;-62
2022/11/07 07:23:11;;;;;;;11.13;3.00;;;;;;;;;;5038043;28;20021;-62
2022/11/07 07:25:36;;;;;;;13.30;2.60;;;;;;;;;;5051010;28;20345;-62
2022/11/07 07:28:01;;;;;;;8.70;2.37;;;;;;;;;;5051018;28;20108;-62
2022/11/07 07:30:27;;;;;;;11.83;3.00;;;;;;;;;;5051589;28;20119;-62
2022/11/07 07:32:52;;;;;;;13.07;2.53;;;;;;;;;;5051778;28;20064;-62
2022/11/07 07:35:17;;;;;;;9.60;2.80;;;;;;;;;;5051811;28;20502;-62
2022/11/07 07:37:42;;;;;;;10.23;2.70;;;;;;;;;;5051522;28;20053;-62
2022/11/07 07:40:08;;;;;;;13.30;2.93;;;;;;;;;;5051913;28;20024;-63
2022/11/07 07:42:33;;;;;;;10.57;2.70;;;;;;;;;;5051505;28;20063;-62
2022/11/07 07:44:58;;;;;;;10.80;2.80;;;;;;;;;;5032974;28;20104;-62
2022/11/07 07:47:23;;;;;;;9.17;2.70;;;;;;;;;;5031427;28;20029;-63
2022/11/07 07:49:49;;;;;;;13.77;2.87;;;;;;;;;;5031841;28;20029;-62
2022/11/07 07:52:14;;;;;;;11.80;3.80;;;;;;;;;;5048983;28;20468;-62
2022/11/07 07:54:39;;;;;;;10.93;3.40;;;;;;;;;;5051798;28;20380;-61
2022/11/07 07:57:04;;;;;;;12.13;4.00;;;;;;;;;;5051318;28;20492;-62
2022/11/07 07:59:30;;;;;;;11.77;3.23;;;;;;;;;;5051163;28;20130;-62
2022/11/07 08:01:55;;;;;;;10.80;3.53;;;;;;;;;;5050825;28;20423;-61
2022/11/07 08:04:20;;;;;;;13.77;3.80;;;;;;;;;;5051273;28;20357;-62
2022/11/07 08:06:45;;;;;;;11.57;3.40;;;;;;;;;;5051219;28;20392;-62
2022/11/07 08:09:10;;;;;;;12.23;3.73;;;;;;;;;;5051712;28;20020;-62
2022/11/07 08:11:36;;;;;;;13.67;3.70;;;;;;;;;;5051300;28;20439;-62
2022/11/07 08:14:01;;;;;;;12.70;3.33;;;;;;;;;;5051222;28;20025;-62
2022/11/07 08:16:26;;;;;;;14.07;3.40;;;;;;;;;;5038373;28;20026;-62
2022/11/07 08:18:51;;;;;;;13.53;4.40;;;;;;;;;;5048807;28;20021;-62
2022/11/07 08:21:16;;;;;;;17.70;4.07;;;;;;;;;;5051114;28;20029;-62
2022/11/07 08:23:42;;;;;;;11.07;3.57;;;;;;;;;;5051060;28;20025;-62
2022/11/07 08:26:07;;;;;;;12.00;3.63;;;;;;;;;;5051089;28;20028;-62
2022/11/07 08:28:34;;;;;;;11.13;3.13;;;;;;;;;;5051296;28;20021;-63
2022/11/07 08:30:59;;;;;;;11.20;3.50;;;;;;;;;;5048154;28;20025;-61
2022/11/07 08:33:25;;;;;;;14.93;3.30;;;;;;;;;;5050937;28;20040;-62
2022/11/07 08:35:52;;;;;;;12.80;3.63;;;;;;;;;;5050685;28;20025;-62
2022/11/07 08:38:17;;;;;;;12.97;3.80;;;;;;;;;;5054732;28;20025;-62
2022/11/07 08:40:42;;;;;;;8.53;2.67;;;;;;;;;;5054779;28;20025;-63
2022/11/07 08:43:07;;;;;;;16.17;4.30;;;;;;;;;;5055052;28;20029;-63
2022/11/07 08:45:33;;;;;;;13.73;2.93;;;;;;;;;;5054985;28;20032;-63
2022/11/07 08:47:58;;;;;;;10.90;3.03;;;;;;;;;;5054651;28;20033;-62
2022/11/07 08:50:24;;;;;;;11.23;2.60;;;;;;;;;;5054878;28;20055;-62
2022/11/07 08:52:49;;;;;;;11.97;2.80;;;;;;;;;;5054178;28;20469;-62
2022/11/07 08:55:14;;;;;;;11.50;2.90;;;;;;;;;;5054763;28;20110;-62
2022/11/07 08:57:40;;;;;;;15.03;3.37;;;;;;;;;;5054688;28;20115;-63
2022/11/07 09:00:05;;;;;;;9.97;2.80;;;;;;;;;;5054856;28;20074;-62
2022/11/07 09:02:31;;;;;;;13.10;3.47;;;;;;;;;;5054728;28;20491;-62
2022/11/07 09:04:56;;;;;;;9.43;2.90;;;;;;;;;;5054755;28;20017;-61
2022/11/07 09:07:21;;;;;;;12.00;3.30;;;;;;;;;;5052521;28;20607;-62
2022/11/07 09:09:46;;;;;;;12.30;3.10;;;;;;;;;;5053916;28;20029;-61
2022/11/07 09:12:11;;;;;;;10.10;3.07;;;;;;;;;;5054533;28;20083;-62
2022/11/07 09:14:37;;;;;;;12.10;3.13;;;;;;;;;;5054482;28;20024;-62
2022/11/07 09:17:02;;;;;;;10.80;3.67;;;;;;;;;;5036510;28;20481;-61
2022/11/07 09:19:27;;;;;;;8.97;2.53;;;;;;;;;;5034348;28;20021;-62
2022/11/07 09:21:52;;;;;;;12.00;3.27;;;;;;;;;;5034397;28;20079;-62
2022/11/07 09:24:18;;;;;;;13.07;4.13;;;;;;;;;;5050048;28;20021;-62
2022/11/07 09:26:43;;;;;;;15.53;3.77;;;;;;;;;;5060016;28;20031;-62
2022/11/07 09:29:08;;;;;;;11.10;3.30;;;;;;;;;;5074187;28;20017;-63
2022/11/07 09:31:33;;;;;;;10.23;3.37;;;;;;;;;;5073932;28;20491;-62
2022/11/07 09:33:59;;;;;;;10.67;3.10;;;;;;;;;;5074305;28;20047;-62
2022/11/07 09:36:24;;;;;;;10.43;3.07;;;;;;;;;;5073993;28;20344;-62
2022/11/07 09:38:49;;;;;;;10.00;2.97;;;;;;;;;;5074001;28;20032;-62
2022/11/07 09:41:21;;;;;;;12.27;3.43;;;;;;;;;;5059234;28;20025;-62
2022/11/07 09:43:46;;;;;;;;;;;;;;;;;;5051014;28;20367;-62
2022/11/07 09:46:14;;;;;;;9.00;2.60;;;;;;;;;;5034877;28;20360;-62
2022/11/07 09:48:45;;;;;;;13.57;3.00;;;;;;;;;;5053190;28;20029;-62
2022/11/07 09:51:25;;;;;;;12.57;3.47;;;;;;;;;;5053775;28;20025;-62
2022/11/07 09:53:53;;;;;;;10.70;2.90;;;;;;;;;;5053843;28;20029;-62
2022/11/07 09:56:19;;;;;;;12.13;2.90;;;;;;;;;;5053362;28;20017;-63
2022/11/07 09:58:50;;;;;;;10.60;3.13;;;;;;;;;;5052546;28;20381;-64
2022/11/07 10:01:16;;;;;;;14.38;2.72;;;;;;;;;;5053346;28;20025;-62
2022/11/07 10:03:42;;;;;;;10.87;2.37;;;;;;;;;;5053158;28;20104;-62
2022/11/07 10:06:18;;;;;;;10.50;2.70;;;;;;;;;;5053449;28;20092;-63
2022/11/07 10:09:13;;;;;;;14.83;2.87;;;;;;;;;;5053161;28;20035;-62
2022/11/07 10:11:38;;;;;;;8.77;2.03;;;;;;;;;;5059261;28;20377;-62
2022/11/07 10:14:08;;;;;;;9.70;2.57;;;;;;;;;;5053065;28;20195;-63
2022/11/07 10:16:39;;;;;;;10.83;2.87;;;;;;;;;;5052240;28;20033;-62
2022/11/07 10:19:11;;;;;;;13.33;2.70;;;;;;;;;;5053341;28;20108;-62
2022/11/07 10:21:42;;;;;;;11.47;2.80;;;;;;;;;;5053175;28;20024;-62
2022/11/07 10:24:16;;;;;;;9.32;2.30;;;;;;;;;;5053086;28;20025;-62
2022/11/07 10:26:43;;;;;;;12.50;2.80;;;;;;;;;;5035907;28;20026;-62
2022/11/07 10:29:12;;;;;;;12.53;3.17;;;;;;;;;;5032835;28;20025;-62
2022/11/07 10:31:43;;;;;;;12.93;2.40;;;;;;;;;;5041777;28;20035;-62
2022/11/07 10:34:34;;;;;;;8.75;2.00;;;;;;;;;;5052151;28;20419;-63
2022/11/07 10:37:00;;;;;;;11.70;2.60;;;;;;;;;;5053288;28;21984;-62
2022/11/07 10:39:25;;;;;;;7.72;2.00;;;;;;;;;;5067865;28;20100;-62
2022/11/07 10:41:56;;;;;;;10.45;3.03;;;;;;;;;;5052956;28;20138;-63
2022/11/07 10:44:25;;;;;;;9.20;2.22;;;;;;;;;;5052451;28;20021;-63
2022/11/07 10:46:50;;;;;;;11.77;2.63;;;;;;;;;;5052476;28;20025;-63
2022/11/07 10:49:20;;;;;;;10.37;2.10;;;;;;;;;;5052597;28;20021;-62
2022/11/07 10:51:46;;;;;;;9.80;2.22;;;;;;;;;;5052015;28;20045;-62
2022/11/07 10:54:25;;;;;;;5.80;1.80;;;;;;;;;;5052335;28;20532;-62
2022/11/07 10:56:56;;;;;;;9.82;2.30;;;;;;;;;;5052210;28;20036;-62
2022/11/07 10:59:26;;;;;;;12.25;2.05;;;;;;;;;;5051917;28;20021;-63
2022/11/07 11:01:52;;;;;;;8.25;1.92;;;;;;;;;;5052166;28;20480;-63
2022/11/07 11:04:22;;;;;;;12.48;2.90;;;;;;;;;;5052121;28;20013;-62
2022/11/07 11:06:55;;;;;;;7.33;2.00;;;;;;;;;;5051547;28;20052;-63
2022/11/07 11:09:21;;;;;;;9.75;2.30;;;;;;;;;;5051974;28;20060;-63
2022/11/07 11:11:49;;;;;;;6.83;1.70;;;;;;;;;;5052260;28;20045;-63
2022/11/07 11:14:17;;;;;;;9.43;1.90;;;;;;;;;;5051782;28;20460;-63
2022/11/07 11:16:42;;;;;;;9.85;2.08;;;;;;;;;;5052203;28;20100;-62
2022/11/07 11:19:18;;;;;;;10.10;2.13;;;;;;;;;;5051991;28;20108;-63
2022/11/07 11:21:45;;;;;;;9.30;1.85;;;;;;;;;;5035338;28;20026;-63
2022/11/07 11:24:31;;;;;;;9.80;2.53;;;;;;;;;;5032687;28;20476;-62
2022/11/07 11:26:58;;;;;;;9.73;2.13;;;;;;;;;;5050715;28;20024;-62
2022/11/07 11:29:39;;;;;;;13.05;2.63;;;;;;;;;;5051720;28;20029;-63
2022/11/07 11:32:04;;;;;;;10.00;2.10;;;;;;;;;;5051745;28;20048;-63
2022/11/07 11:34:48;;;;;;;6.05;1.70;;;;;;;;;;5051678;28;20032;-62
2022/11/07 11:37:21;;;;;;;9.75;2.63;;;;;;;;;;5051796;28;20032;-62
2022/11/07 11:39:48;;;;;;;9.30;2.30;;;;;;;;;;5051493;28;20106;-63
2022/11/07 11:42:40;;;;;;;7.95;2.03;;;;;;;;;;5051155;28;20487;-63
2022/11/07 11:45:14;;;;;;;9.45;2.03;;;;;;;;;;5052284;28;20029;-61
2022/11/07 11:47:41;;;;;;;10.88;2.10;;;;;;;;;;5050724;28;20484;-62
2022/11/07 11:50:15;;;;;;;10.68;2.08;;;;;;;;;;5051343;28;20021;-62
2022/11/07 11:52:40;;;;;;;8.43;2.00;;;;;;;;;;5051588;28;20048;-62
2022/11/07 11:55:16;;;;;;;6.00;1.80;;;;;;;;;;5051780;28;20021;-62
2022/11/07 11:57:59;;;;;;;12.07;2.35;;;;;;;;;;5051463;28;20110;-63
2022/11/07 12:00:24;;;;;;;11.18;2.55;;;;;;;;;;5051672;28;20025;-63
2022/11/07 12:03:08;;;;;;;12.13;2.15;;;;;;;;;;5051689;28;20100;-62
2022/11/07 12:05:42;;;;;;;6.28;1.65;;;;;;;;;;5051640;28;20017;-63
2022/11/07 12:08:33;;;;;;;7.37;1.80;;;;;;;;;;5051713;28;20070;-63
2022/11/07 12:11:14;;;;;;;10.75;1.70;;;;;;;;;;5058506;28;20116;-63
2022/11/07 12:13:51;;;;;;;6.97;1.93;;;;;;;;;;5055608;28;20476;-63
2022/11/07 12:16:17;;;;;;;8.43;1.70;;;;;;;;;;5054670;28;20021;-62
2022/11/07 12:19:00;;;;;;;8.20;1.90;;;;;;;;;;5055342;28;20494;-62
2022/11/07 12:21:31;;;;;;;6.70;1.50;;;;;;;;;;5055156;28;20348;-62
2022/11/07 12:24:15;;;;;;;9.68;2.03;;;;;;;;;;5053271;28;20033;-63
2022/11/07 12:26:58;;;;;;;9.43;1.63;;;;;;;;;;5035740;28;20017;-63
2022/11/07 12:29:34;;;;;;;9.83;1.90;;;;;;;;;;5036196;28;20033;-62
2022/11/07 12:32:14;;;;;;;10.40;2.20;;;;;;;;;;5035707;28;20033;-62
2022/11/07 12:34:57;;;;;;;8.27;1.88;;;;;;;;;;5035234;28;20026;-61
2022/11/07 12:37:23;;;;;;;8.63;1.90;;;;;;;;;;5034851;28;20018;-62
2022/11/07 12:40:03;;;;;;;7.40;1.92;;;;;;;;;;5035118;28;20512;-62
2022/11/07 12:42:35;;;;;;;10.03;2.00;;;;;;;;;;5033613;28;20021;-62
2022/11/07 12:45:13;;;;;;;9.15;1.83;;;;;;;;;;5034986;28;20014;-62
2022/11/07 12:47:47;;;;;;;10.38;1.88;;;;;;;;;;5038965;28;20025;-62
2022/11/07 12:50:21;;;;;;;12.57;1.92;;;;;;;;;;5053977;28;20032;-62
2022/11/07 12:52:46;;;;;;;10.27;2.00;;;;;;;;;;5054061;28;20017;-63
2022/11/07 12:55:26;;;;;;;8.57;1.98;;;;;;;;;;5054626;28;20495;-62
2022/11/07 12:57:53;;;;;;;4.72;1.30;;;;;;;;;;5054031;28;20029;-62
2022/11/07 13:00:20;;;;;;;11.30;2.05;;;;;;;;;;5053658;28;20099;-62
2022/11/07 13:02:45;;;;;;;8.07;2.30;;;;;;;;;;5054715;28;20491;-62
2022/11/07 13:05:17;;;;;;;8.82;1.77;;;;;;;;;;5054400;28;20017;-63
2022/11/07 13:07:49;;;;;;;9.60;2.10;;;;;;;;;;5053998;28;20108;-62
2022/11/07 13:10:53;;;;;;;10.15;2.67;;;;;;;;;;5053848;28;20024;-63
2022/11/07 13:13:37;;;;;;;8.65;1.60;;;;;;;;;;4992619;28;20114;-62
2022/11/07 13:16:06;;;;;;;10.40;2.22;;;;;;;;;;4992590;28;20038;-62
2022/11/07 13:18:31;;;;;;;8.15;2.15;;;;;;;;;;5030037;28;20082;-62
2022/11/07 13:20:58;;;;;;;11.02;2.10;;;;;;;;;;5053899;28;20067;-62
2022/11/07 13:23:24;;;;;;;7.68;1.73;;;;;;;;;;5047453;28;20139;-63
2022/11/07 13:25:56;;;;;;;11.90;2.50;;;;;;;;;;5050300;28;20021;-62
2022/11/07 13:28:26;;;;;;;14.95;2.95;;;;;;;;;;5054000;28;20021;-62
2022/11/07 13:30:53;;;;;;;9.00;1.92;;;;;;;;;;5054167;28;20032;-62
2022/11/07 13:33:28;;;;;;;16.45;2.58;;;;;;;;;;5053717;28;20029;-62
2022/11/07 13:35:55;;;;;;;9.73;1.83;;;;;;;;;;5053867;28;20021;-62
2022/11/07 13:38:22;;;;;;;7.90;1.90;;;;;;;;;;5053571;28;20021;-63
2022/11/07 13:41:03;;;;;;;7.47;1.90;;;;;;;;;;5053031;28;20102;-61
2022/11/07 13:43:28;;;;;;;9.65;2.50;;;;;;;;;;5053636;28;20540;-62
2022/11/07 13:45:57;;;;;;;9.73;2.58;;;;;;;;;;5053641;28;20098;-62
2022/11/07 13:48:46;;;;;;;8.98;2.13;;;;;;;;;;5053858;28;20528;-63
2022/11/07 13:51:15;;;;;;;10.45;2.15;;;;;;;;;;5045767;28;20041;-63
2022/11/07 13:53:59;;;;;;;9.75;2.05;;;;;;;;;;5053589;28;20025;-62
2022/11/07 13:56:28;;;;;;;8.15;2.33;;;;;;;;;;5053748;28;20044;-62
2022/11/07 13:58:54;;;;;;;6.13;1.63;;;;;;;;;;5052367;28;20029;-63
2022/11/07 14:01:23;;;;;;;10.20;2.08;;;;;;;;;;5053946;28;20024;-62
2022/11/07 14:03:48;;;;;;;6.38;1.60;;;;;;;;;;5053456;28;20029;-62
2022/11/07 14:06:14;;;;;;;9.13;2.25;;;;;;;;;;5053555;28;20024;-62
2022/11/07 14:08:42;;;;;;;9.00;2.15;;;;;;;;;;5053374;28;20025;-63
2022/11/07 14:11:18;;;;;;;9.73;2.05;;;;;;;;;;5053442;28;20021;-63
2022/11/07 14:13:45;;;;;;;8.65;2.03;;;;;;;;;;5053060;28;20031;-63
2022/11/07 14:16:13;;;;;;;11.67;2.63;;;;;;;;;;5033262;28;20362;-64
2022/11/07 14:18:53;;;;;;;10.52;2.13;;;;;;;;;;5033017;28;20076;-63
2022/11/07 14:21:19;;;;;;;9.77;2.43;;;;;;;;;;5033433;28;20025;-63
2022/11/07 14:23:45;;;;;;;10.73;2.43;;;;;;;;;;5033181;28;20481;-63
2022/11/07 14:26:18;;;;;;;8.80;2.27;;;;;;;;;;5033978;28;20032;-63
2022/11/07 14:28:43;;;;;;;9.48;2.20;;;;;;;;;;5033068;28;20040;-62
2022/11/07 14:31:17;;;;;;;9.30;2.30;;;;;;;;;;5037951;28;20024;-63
2022/11/07 14:33:47;;;;;;;9.33;2.43;;;;;;;;;;5052755;28;20037;-63
2022/11/07 14:36:13;;;;;;;9.23;2.07;;;;;;;;;;5052979;28;20118;-63
2022/11/07 14:38:43;;;;;;;10.83;2.27;;;;;;;;;;5052386;28;20112;-63
2022/11/07 14:41:10;;;;;;;9.70;2.33;;;;;;;;;;5052855;28;20052;-63
2022/11/07 14:43:37;;;;;;;7.40;2.80;;;;;;;;;;5052437;28;20083;-62
2022/11/07 14:46:05;;;;;;;8.90;2.47;;;;;;;;;;5052543;28;20087;-63
2022/11/07 14:48:31;;;;;;;10.80;2.90;;;;;;;;;;5051617;28;20476;-61
2022/11/07 14:50:57;;;;;;;11.03;2.13;;;;;;;;;;5052193;28;20052;-63